sensor_id;sensor_type;location;lat;lon;timestamp;P1;durP1;ratioP1;P2;durP2;ratioP2
1625;SDS011;806;48.770;9.156;2022-10-31T00:01:57;1.13;;;0.90;;
1625;SDS011;806;48.770;9.156;2022-10-31T00:04:24;3.77;;;1.30;;
1625;SDS011;806;48.770;9.156;2022-10-31T00:06:51;2.63;;;0.93;;
1625;SDS011;806;48.770;9.156;2022-10-31T00:09:18;4.13;;;1.00;;
1625;SDS011;806;48.770;9.156;2022-10-31T00:11:45;2.53;;;1.00;;
1625;SDS011;806;48.770;9.156;2022-10-31T00:14:12;4.40;;;1.07;;
1625;SDS011;806;48.770;9.156;2022-10-31T00:16:39;1.13;;;0.80;;
1625;SDS011;806;48.770;9.156;2022-10-31T00:19:08;2.70;;;0.90;;
1625;SDS011;806;48.770;9.156;2022-10-31T00:21:35;1.70;;;1.00;;
1625;SDS011;806;48.770;9.156;2022-10-31T00:24:02;2.03;;;1.00;;
1625;SDS011;806;48.770;9.156;2022-10-31T00:26:29;1.80;;;0.97;;
1625;SDS011;806;48.770;9.156;2022-10-31T00:28:57;1.50;;;0.90;;
1625;SDS011;806;48.770;9.156;2022-10-31T00:31:24;1.40;;;0.80;;
1625;SDS011;806;48.770;9.156;2022-10-31T00:33:51;2.03;;;0.90;;
1625;SDS011;806;48.770;9.156;2022-10-31T00:36:19;2.33;;;0.97;;
1625;SDS011;806;48.770;9.156;2022-10-31T00:38:47;2.60;;;0.90;;
1625;SDS011;806;48.770;9.156;2022-10-31T00:41:15;4.83;;;0.90;;
1625;SDS011;806;48.770;9.156;2022-10-31T00:43:43;1.40;;;0.93;;
1625;SDS011;806;48.770;9.156;2022-10-31T00:46:10;3.33;;;0.90;;
1625;SDS011;806;48.770;9.156;2022-10-31T00:48:37;2.87;;;1.00;;
1625;SDS011;806;48.770;9.156;2022-10-31T00:51:04;1.70;;;1.00;;
1625;SDS011;806;48.770;9.156;2022-10-31T00:53:33;3.40;;;0.90;;
1625;SDS011;806;48.770;9.156;2022-10-31T00:56:00;1.67;;;0.80;;
1625;SDS011;806;48.770;9.156;2022-10-31T00:58:27;1.70;;;0.97;;
1625;SDS011;806;48.770;9.156;2022-10-31T01:00:54;5.37;;;1.00;;
1625;SDS011;806;48.770;9.156;2022-10-31T01:03:21;1.77;;;1.00;;
1625;SDS011;806;48.770;9.156;2022-10-31T01:05:56;1.20;;;0.80;;
1625;SDS011;806;48.770;9.156;2022-10-31T01:08:24;1.87;;;0.90;;
1625;SDS011;806;48.770;9.156;2022-10-31T01:11:00;1.40;;;0.90;;
1625;SDS011;806;48.770;9.156;2022-10-31T01:13:27;2.00;;;0.80;;
1625;SDS011;806;48.770;9.156;2022-10-31T01:15:54;1.47;;;0.77;;
1625;SDS011;806;48.770;9.156;2022-10-31T01:18:21;2.23;;;0.90;;
1625;SDS011;806;48.770;9.156;2022-10-31T01:20:56;2.83;;;0.90;;
1625;SDS011;806;48.770;9.156;2022-10-31T01:23:24;1.70;;;0.70;;
1625;SDS011;806;48.770;9.156;2022-10-31T01:25:59;1.40;;;0.90;;
1625;SDS011;806;48.770;9.156;2022-10-31T01:28:31;2.17;;;1.10;;
1625;SDS011;806;48.770;9.156;2022-10-31T01:31:01;2.60;;;0.90;;
1625;SDS011;806;48.770;9.156;2022-10-31T01:33:29;1.10;;;0.70;;
1625;SDS011;806;48.770;9.156;2022-10-31T01:35:56;2.10;;;1.00;;
1625;SDS011;806;48.770;9.156;2022-10-31T01:38:24;2.10;;;0.80;;
1625;SDS011;806;48.770;9.156;2022-10-31T01:40:51;1.90;;;0.70;;
1625;SDS011;806;48.770;9.156;2022-10-31T01:43:19;1.20;;;0.80;;
1625;SDS011;806;48.770;9.156;2022-10-31T01:45:48;1.40;;;0.80;;
1625;SDS011;806;48.770;9.156;2022-10-31T01:48:20;1.80;;;0.90;;
1625;SDS011;806;48.770;9.156;2022-10-31T01:50:53;1.20;;;0.70;;
1625;SDS011;806;48.770;9.156;2022-10-31T01:53:21;1.50;;;0.83;;
1625;SDS011;806;48.770;9.156;2022-10-31T01:55:49;2.53;;;1.00;;
1625;SDS011;806;48.770;9.156;2022-10-31T01:58:20;1.43;;;0.90;;
1625;SDS011;806;48.770;9.156;2022-10-31T02:00:52;1.53;;;1.00;;
1625;SDS011;806;48.770;9.156;2022-10-31T02:03:22;2.60;;;0.90;;
1625;SDS011;806;48.770;9.156;2022-10-31T02:05:50;1.70;;;0.80;;
1625;SDS011;806;48.770;9.156;2022-10-31T02:08:20;1.20;;;0.90;;
1625;SDS011;806;48.770;9.156;2022-10-31T02:10:51;1.80;;;0.73;;
1625;SDS011;806;48.770;9.156;2022-10-31T02:13:19;1.73;;;0.90;;
1625;SDS011;806;48.770;9.156;2022-10-31T02:15:49;1.23;;;0.83;;
1625;SDS011;806;48.770;9.156;2022-10-31T02:18:18;2.10;;;0.90;;
1625;SDS011;806;48.770;9.156;2022-10-31T02:20:48;1.90;;;0.80;;
1625;SDS011;806;48.770;9.156;2022-10-31T02:23:33;4.63;;;0.73;;
1625;SDS011;806;48.770;9.156;2022-10-31T02:26:28;1.97;;;0.90;;
1625;SDS011;806;48.770;9.156;2022-10-31T02:29:27;1.40;;;1.10;;
1625;SDS011;806;48.770;9.156;2022-10-31T02:32:16;2.40;;;0.90;;
1625;SDS011;806;48.770;9.156;2022-10-31T02:34:51;0.90;;;0.70;;
1625;SDS011;806;48.770;9.156;2022-10-31T02:37:25;3.63;;;0.93;;
1625;SDS011;806;48.770;9.156;2022-10-31T02:40:00;1.97;;;1.00;;
1625;SDS011;806;48.770;9.156;2022-10-31T02:42:36;1.30;;;0.80;;
1625;SDS011;806;48.770;9.156;2022-10-31T02:45:13;1.67;;;0.90;;
1625;SDS011;806;48.770;9.156;2022-10-31T02:47:46;4.63;;;1.10;;
1625;SDS011;806;48.770;9.156;2022-10-31T02:50:18;3.20;;;1.00;;
1625;SDS011;806;48.770;9.156;2022-10-31T02:52:50;1.20;;;0.90;;
1625;SDS011;806;48.770;9.156;2022-10-31T02:58:13;2.07;;;0.90;;
1625;SDS011;806;48.770;9.156;2022-10-31T03:00:43;1.63;;;0.83;;
1625;SDS011;806;48.770;9.156;2022-10-31T03:03:19;1.33;;;0.80;;
1625;SDS011;806;48.770;9.156;2022-10-31T03:05:55;3.67;;;1.00;;
1625;SDS011;806;48.770;9.156;2022-10-31T03:08:30;2.03;;;0.90;;
1625;SDS011;806;48.770;9.156;2022-10-31T03:11:02;1.70;;;0.90;;
1625;SDS011;806;48.770;9.156;2022-10-31T03:13:34;1.83;;;0.80;;
1625;SDS011;806;48.770;9.156;2022-10-31T03:16:07;1.40;;;0.83;;
1625;SDS011;806;48.770;9.156;2022-10-31T03:18:40;3.37;;;0.80;;
1625;SDS011;806;48.770;9.156;2022-10-31T03:21:16;1.40;;;0.83;;
1625;SDS011;806;48.770;9.156;2022-10-31T03:23:47;2.63;;;0.90;;
1625;SDS011;806;48.770;9.156;2022-10-31T03:26:17;1.70;;;0.80;;
1625;SDS011;806;48.770;9.156;2022-10-31T03:28:46;1.27;;;0.73;;
1625;SDS011;806;48.770;9.156;2022-10-31T03:31:18;2.97;;;0.90;;
1625;SDS011;806;48.770;9.156;2022-10-31T03:33:50;1.40;;;0.80;;
1625;SDS011;806;48.770;9.156;2022-10-31T03:36:20;3.40;;;0.80;;
1625;SDS011;806;48.770;9.156;2022-10-31T03:38:48;2.10;;;0.83;;
1625;SDS011;806;48.770;9.156;2022-10-31T03:41:16;1.60;;;0.83;;
1625;SDS011;806;48.770;9.156;2022-10-31T03:43:48;2.00;;;0.90;;
1625;SDS011;806;48.770;9.156;2022-10-31T03:46:20;1.73;;;0.80;;
1625;SDS011;806;48.770;9.156;2022-10-31T03:48:47;1.87;;;0.90;;
1625;SDS011;806;48.770;9.156;2022-10-31T03:51:17;1.30;;;0.80;;
1625;SDS011;806;48.770;9.156;2022-10-31T03:53:51;1.40;;;0.80;;
1625;SDS011;806;48.770;9.156;2022-10-31T03:56:24;2.90;;;0.83;;
1625;SDS011;806;48.770;9.156;2022-10-31T03:58:58;2.33;;;0.77;;
1625;SDS011;806;48.770;9.156;2022-10-31T04:01:28;2.13;;;0.90;;
1625;SDS011;806;48.770;9.156;2022-10-31T04:03:58;1.40;;;0.80;;
1625;SDS011;806;48.770;9.156;2022-10-31T04:06:27;1.90;;;1.10;;
1625;SDS011;806;48.770;9.156;2022-10-31T04:08:56;1.53;;;0.80;;
1625;SDS011;806;48.770;9.156;2022-10-31T04:11:28;1.57;;;0.87;;
1625;SDS011;806;48.770;9.156;2022-10-31T04:13:57;3.27;;;0.80;;
1625;SDS011;806;48.770;9.156;2022-10-31T04:16:26;1.50;;;1.00;;
1625;SDS011;806;48.770;9.156;2022-10-31T04:18:53;2.10;;;0.80;;
1625;SDS011;806;48.770;9.156;2022-10-31T04:21:25;1.40;;;0.80;;
1625;SDS011;806;48.770;9.156;2022-10-31T04:23:55;1.20;;;0.80;;
1625;SDS011;806;48.770;9.156;2022-10-31T04:26:22;1.83;;;0.90;;
1625;SDS011;806;48.770;9.156;2022-10-31T04:28:49;2.30;;;0.80;;
1625;SDS011;806;48.770;9.156;2022-10-31T04:31:16;1.47;;;0.80;;
1625;SDS011;806;48.770;9.156;2022-10-31T04:33:43;1.40;;;0.80;;
1625;SDS011;806;48.770;9.156;2022-10-31T04:36:10;1.27;;;0.90;;
1625;SDS011;806;48.770;9.156;2022-10-31T04:38:39;2.73;;;0.90;;
1625;SDS011;806;48.770;9.156;2022-10-31T04:41:06;2.70;;;0.73;;
1625;SDS011;806;48.770;9.156;2022-10-31T04:43:33;1.43;;;0.90;;
1625;SDS011;806;48.770;9.156;2022-10-31T04:46:00;2.60;;;0.83;;
1625;SDS011;806;48.770;9.156;2022-10-31T04:48:27;4.77;;;0.87;;
1625;SDS011;806;48.770;9.156;2022-10-31T04:50:58;1.77;;;0.90;;
1625;SDS011;806;48.770;9.156;2022-10-31T04:53:25;2.03;;;1.40;;
1625;SDS011;806;48.770;9.156;2022-10-31T04:55:54;1.20;;;0.80;;
1625;SDS011;806;48.770;9.156;2022-10-31T04:58:21;1.40;;;0.90;;
1625;SDS011;806;48.770;9.156;2022-10-31T05:00:50;1.73;;;0.90;;
1625;SDS011;806;48.770;9.156;2022-10-31T05:03:18;1.77;;;0.90;;
1625;SDS011;806;48.770;9.156;2022-10-31T05:05:45;1.33;;;0.80;;
1625;SDS011;806;48.770;9.156;2022-10-31T05:08:12;1.03;;;0.80;;
1625;SDS011;806;48.770;9.156;2022-10-31T05:10:39;2.60;;;0.80;;
1625;SDS011;806;48.770;9.156;2022-10-31T05:13:07;2.33;;;0.83;;
1625;SDS011;806;48.770;9.156;2022-10-31T05:15:34;1.10;;;0.80;;
1625;SDS011;806;48.770;9.156;2022-10-31T05:18:01;1.40;;;0.90;;
1625;SDS011;806;48.770;9.156;2022-10-31T05:20:29;1.87;;;0.90;;
1625;SDS011;806;48.770;9.156;2022-10-31T05:22:57;2.40;;;0.80;;
1625;SDS011;806;48.770;9.156;2022-10-31T05:25:25;3.93;;;0.90;;
1625;SDS011;806;48.770;9.156;2022-10-31T05:27:53;2.60;;;0.90;;
1625;SDS011;806;48.770;9.156;2022-10-31T05:30:23;3.40;;;0.90;;
1625;SDS011;806;48.770;9.156;2022-10-31T05:32:52;5.13;;;0.80;;
1625;SDS011;806;48.770;9.156;2022-10-31T05:35:19;3.30;;;1.10;;
1625;SDS011;806;48.770;9.156;2022-10-31T05:37:47;2.60;;;1.00;;
1625;SDS011;806;48.770;9.156;2022-10-31T05:40:14;3.03;;;1.00;;
1625;SDS011;806;48.770;9.156;2022-10-31T05:42:42;1.70;;;0.90;;
1625;SDS011;806;48.770;9.156;2022-10-31T05:45:11;1.30;;;0.80;;
1625;SDS011;806;48.770;9.156;2022-10-31T05:47:40;1.67;;;0.90;;
1625;SDS011;806;48.770;9.156;2022-10-31T05:50:08;3.00;;;0.70;;
1625;SDS011;806;48.770;9.156;2022-10-31T05:52:36;1.33;;;0.87;;
1625;SDS011;806;48.770;9.156;2022-10-31T05:55:03;2.10;;;1.00;;
1625;SDS011;806;48.770;9.156;2022-10-31T05:57:31;1.67;;;0.70;;
1625;SDS011;806;48.770;9.156;2022-10-31T05:59:58;1.20;;;0.80;;
1625;SDS011;806;48.770;9.156;2022-10-31T06:02:25;2.30;;;1.00;;
1625;SDS011;806;48.770;9.156;2022-10-31T06:04:58;3.27;;;0.90;;
1625;SDS011;806;48.770;9.156;2022-10-31T06:07:24;1.47;;;1.37;;
1625;SDS011;806;48.770;9.156;2022-10-31T06:09:51;2.10;;;0.93;;
1625;SDS011;806;48.770;9.156;2022-10-31T06:12:18;1.70;;;0.80;;
1625;SDS011;806;48.770;9.156;2022-10-31T06:14:45;1.20;;;0.73;;
1625;SDS011;806;48.770;9.156;2022-10-31T06:17:12;1.87;;;0.80;;
1625;SDS011;806;48.770;9.156;2022-10-31T06:19:39;2.07;;;0.80;;
1625;SDS011;806;48.770;9.156;2022-10-31T06:22:07;2.33;;;0.80;;
1625;SDS011;806;48.770;9.156;2022-10-31T06:24:36;1.73;;;1.07;;
1625;SDS011;806;48.770;9.156;2022-10-31T06:27:03;1.87;;;1.07;;
1625;SDS011;806;48.770;9.156;2022-10-31T06:29:31;2.00;;;1.13;;
1625;SDS011;806;48.770;9.156;2022-10-31T06:31:58;2.77;;;1.10;;
1625;SDS011;806;48.770;9.156;2022-10-31T06:34:25;2.23;;;0.90;;
1625;SDS011;806;48.770;9.156;2022-10-31T06:36:52;1.77;;;0.97;;
1625;SDS011;806;48.770;9.156;2022-10-31T06:39:20;1.90;;;0.97;;
1625;SDS011;806;48.770;9.156;2022-10-31T06:41:47;6.93;;;1.00;;
1625;SDS011;806;48.770;9.156;2022-10-31T06:44:14;2.63;;;1.10;;
1625;SDS011;806;48.770;9.156;2022-10-31T06:46:41;1.10;;;0.90;;
1625;SDS011;806;48.770;9.156;2022-10-31T06:49:08;2.23;;;0.90;;
1625;SDS011;806;48.770;9.156;2022-10-31T06:51:35;1.33;;;0.83;;
1625;SDS011;806;48.770;9.156;2022-10-31T06:54:02;2.20;;;1.10;;
1625;SDS011;806;48.770;9.156;2022-10-31T06:56:30;2.10;;;0.97;;
1625;SDS011;806;48.770;9.156;2022-10-31T06:58:57;1.97;;;0.80;;
1625;SDS011;806;48.770;9.156;2022-10-31T07:01:24;1.87;;;0.90;;
1625;SDS011;806;48.770;9.156;2022-10-31T07:03:51;1.30;;;0.80;;
1625;SDS011;806;48.770;9.156;2022-10-31T07:06:18;1.33;;;0.90;;
1625;SDS011;806;48.770;9.156;2022-10-31T07:08:47;5.03;;;0.90;;
1625;SDS011;806;48.770;9.156;2022-10-31T07:11:13;1.40;;;0.77;;
1625;SDS011;806;48.770;9.156;2022-10-31T07:13:42;4.60;;;1.10;;
1625;SDS011;806;48.770;9.156;2022-10-31T07:16:09;1.30;;;0.87;;
1625;SDS011;806;48.770;9.156;2022-10-31T07:18:37;2.60;;;1.00;;
1625;SDS011;806;48.770;9.156;2022-10-31T07:21:04;1.87;;;0.87;;
1625;SDS011;806;48.770;9.156;2022-10-31T07:23:31;1.70;;;0.90;;
1625;SDS011;806;48.770;9.156;2022-10-31T07:25:59;2.60;;;1.30;;
1625;SDS011;806;48.770;9.156;2022-10-31T07:28:26;4.43;;;1.10;;
1625;SDS011;806;48.770;9.156;2022-10-31T07:30:55;1.50;;;0.90;;
1625;SDS011;806;48.770;9.156;2022-10-31T07:33:23;1.53;;;1.00;;
1625;SDS011;806;48.770;9.156;2022-10-31T07:35:52;1.83;;;0.90;;
1625;SDS011;806;48.770;9.156;2022-10-31T07:38:19;4.03;;;1.00;;
1625;SDS011;806;48.770;9.156;2022-10-31T07:40:49;1.80;;;1.00;;
1625;SDS011;806;48.770;9.156;2022-10-31T07:43:17;1.97;;;1.07;;
1625;SDS011;806;48.770;9.156;2022-10-31T07:45:48;1.63;;;0.97;;
1625;SDS011;806;48.770;9.156;2022-10-31T07:48:17;3.23;;;1.03;;
1625;SDS011;806;48.770;9.156;2022-10-31T07:50:44;1.27;;;0.80;;
1625;SDS011;806;48.770;9.156;2022-10-31T07:53:14;1.63;;;0.80;;
1625;SDS011;806;48.770;9.156;2022-10-31T07:55:41;1.87;;;0.90;;
1625;SDS011;806;48.770;9.156;2022-10-31T07:58:09;1.27;;;1.00;;
1625;SDS011;806;48.770;9.156;2022-10-31T08:00:38;2.93;;;1.40;;
1625;SDS011;806;48.770;9.156;2022-10-31T08:03:09;3.67;;;1.10;;
1625;SDS011;806;48.770;9.156;2022-10-31T08:05:39;7.53;;;1.43;;
1625;SDS011;806;48.770;9.156;2022-10-31T08:08:07;2.80;;;1.30;;
1625;SDS011;806;48.770;9.156;2022-10-31T08:10:34;1.90;;;1.07;;
1625;SDS011;806;48.770;9.156;2022-10-31T08:13:03;1.50;;;1.17;;
1625;SDS011;806;48.770;9.156;2022-10-31T08:15:32;2.27;;;1.10;;
1625;SDS011;806;48.770;9.156;2022-10-31T08:18:02;1.90;;;1.10;;
1625;SDS011;806;48.770;9.156;2022-10-31T08:20:29;2.90;;;1.20;;
1625;SDS011;806;48.770;9.156;2022-10-31T08:22:58;4.77;;;1.20;;
1625;SDS011;806;48.770;9.156;2022-10-31T08:25:27;3.10;;;1.23;;
1625;SDS011;806;48.770;9.156;2022-10-31T08:27:55;3.30;;;1.00;;
1625;SDS011;806;48.770;9.156;2022-10-31T08:30:24;3.03;;;1.40;;
1625;SDS011;806;48.770;9.156;2022-10-31T08:32:59;3.50;;;1.20;;
1625;SDS011;806;48.770;9.156;2022-10-31T08:35:28;2.93;;;1.40;;
1625;SDS011;806;48.770;9.156;2022-10-31T08:37:56;3.07;;;1.40;;
1625;SDS011;806;48.770;9.156;2022-10-31T08:40:25;2.10;;;1.30;;
1625;SDS011;806;48.770;9.156;2022-10-31T08:43:01;3.30;;;1.70;;
1625;SDS011;806;48.770;9.156;2022-10-31T08:45:32;4.90;;;1.30;;
1625;SDS011;806;48.770;9.156;2022-10-31T08:48:06;3.37;;;1.20;;
1625;SDS011;806;48.770;9.156;2022-10-31T08:50:42;5.63;;;1.40;;
1625;SDS011;806;48.770;9.156;2022-10-31T08:53:15;3.73;;;1.20;;
1625;SDS011;806;48.770;9.156;2022-10-31T08:55:47;4.40;;;1.33;;
1625;SDS011;806;48.770;9.156;2022-10-31T08:58:16;2.97;;;1.50;;
1625;SDS011;806;48.770;9.156;2022-10-31T09:00:51;3.30;;;1.57;;
1625;SDS011;806;48.770;9.156;2022-10-31T09:03:24;3.57;;;1.30;;
1625;SDS011;806;48.770;9.156;2022-10-31T09:06:00;2.70;;;1.30;;
1625;SDS011;806;48.770;9.156;2022-10-31T09:08:35;1.80;;;1.30;;
1625;SDS011;806;48.770;9.156;2022-10-31T09:11:03;3.37;;;1.30;;
1625;SDS011;806;48.770;9.156;2022-10-31T09:13:51;4.17;;;1.53;;
1625;SDS011;806;48.770;9.156;2022-10-31T09:16:40;3.60;;;1.40;;
1625;SDS011;806;48.770;9.156;2022-10-31T09:19:07;3.00;;;1.40;;
1625;SDS011;806;48.770;9.156;2022-10-31T09:21:51;6.17;;;1.80;;
1625;SDS011;806;48.770;9.156;2022-10-31T09:24:37;5.10;;;2.17;;
1625;SDS011;806;48.770;9.156;2022-10-31T09:27:13;2.30;;;1.47;;
1625;SDS011;806;48.770;9.156;2022-10-31T09:29:40;3.17;;;1.40;;
1625;SDS011;806;48.770;9.156;2022-10-31T09:32:10;5.53;;;1.30;;
1625;SDS011;806;48.770;9.156;2022-10-31T09:34:46;3.37;;;1.80;;
1625;SDS011;806;48.770;9.156;2022-10-31T09:37:16;3.00;;;1.60;;
1625;SDS011;806;48.770;9.156;2022-10-31T09:39:47;5.60;;;1.80;;
1625;SDS011;806;48.770;9.156;2022-10-31T09:45:26;4.20;;;1.30;;
1625;SDS011;806;48.770;9.156;2022-10-31T09:48:01;3.90;;;2.20;;
1625;SDS011;806;48.770;9.156;2022-10-31T09:50:42;3.93;;;1.50;;
1625;SDS011;806;48.770;9.156;2022-10-31T09:53:17;2.03;;;1.67;;
1625;SDS011;806;48.770;9.156;2022-10-31T09:55:51;3.07;;;1.30;;
1625;SDS011;806;48.770;9.156;2022-10-31T09:58:20;2.13;;;1.10;;
1625;SDS011;806;48.770;9.156;2022-10-31T10:00:52;7.00;;;1.50;;
1625;SDS011;806;48.770;9.156;2022-10-31T10:03:26;2.50;;;1.20;;
1625;SDS011;806;48.770;9.156;2022-10-31T10:05:59;3.93;;;1.60;;
1625;SDS011;806;48.770;9.156;2022-10-31T10:08:34;3.73;;;1.40;;
1625;SDS011;806;48.770;9.156;2022-10-31T10:11:06;2.33;;;1.30;;
1625;SDS011;806;48.770;9.156;2022-10-31T10:16:36;2.43;;;1.20;;
1625;SDS011;806;48.770;9.156;2022-10-31T10:19:23;3.63;;;1.60;;
1625;SDS011;806;48.770;9.156;2022-10-31T10:22:09;3.73;;;1.30;;
1625;SDS011;806;48.770;9.156;2022-10-31T10:24:46;3.73;;;1.87;;
1625;SDS011;806;48.770;9.156;2022-10-31T10:27:23;3.40;;;1.57;;
1625;SDS011;806;48.770;9.156;2022-10-31T10:30:02;4.50;;;1.47;;
1625;SDS011;806;48.770;9.156;2022-10-31T10:32:34;2.40;;;1.37;;
1625;SDS011;806;48.770;9.156;2022-10-31T10:35:09;2.70;;;2.10;;
1625;SDS011;806;48.770;9.156;2022-10-31T10:37:52;5.83;;;4.27;;
1625;SDS011;806;48.770;9.156;2022-10-31T10:40:25;4.30;;;1.70;;
1625;SDS011;806;48.770;9.156;2022-10-31T10:42:58;1.87;;;1.40;;
1625;SDS011;806;48.770;9.156;2022-10-31T10:45:53;2.90;;;1.47;;
1625;SDS011;806;48.770;9.156;2022-10-31T10:48:45;5.63;;;1.90;;
1625;SDS011;806;48.770;9.156;2022-10-31T10:51:21;2.23;;;1.20;;
1625;SDS011;806;48.770;9.156;2022-10-31T10:54:16;5.37;;;1.87;;
1625;SDS011;806;48.770;9.156;2022-10-31T10:56:59;4.10;;;1.63;;
1625;SDS011;806;48.770;9.156;2022-10-31T10:59:36;2.83;;;1.53;;
1625;SDS011;806;48.770;9.156;2022-10-31T11:02:08;4.10;;;1.87;;
1625;SDS011;806;48.770;9.156;2022-10-31T11:04:43;2.63;;;1.40;;
1625;SDS011;806;48.770;9.156;2022-10-31T11:07:13;2.23;;;1.20;;
1625;SDS011;806;48.770;9.156;2022-10-31T11:09:40;2.63;;;1.40;;
1625;SDS011;806;48.770;9.156;2022-10-31T11:12:08;1.93;;;1.40;;
1625;SDS011;806;48.770;9.156;2022-10-31T11:14:43;2.30;;;1.57;;
1625;SDS011;806;48.770;9.156;2022-10-31T11:17:17;5.57;;;1.70;;
1625;SDS011;806;48.770;9.156;2022-10-31T11:19:58;3.53;;;1.20;;
1625;SDS011;806;48.770;9.156;2022-10-31T11:22:26;3.40;;;1.47;;
1625;SDS011;806;48.770;9.156;2022-10-31T11:24:53;2.83;;;1.40;;
1625;SDS011;806;48.770;9.156;2022-10-31T11:27:21;4.40;;;1.10;;
1625;SDS011;806;48.770;9.156;2022-10-31T11:29:51;2.20;;;1.30;;
1625;SDS011;806;48.770;9.156;2022-10-31T11:32:19;3.30;;;1.30;;
1625;SDS011;806;48.770;9.156;2022-10-31T11:34:48;1.83;;;1.30;;
1625;SDS011;806;48.770;9.156;2022-10-31T11:37:19;2.50;;;1.77;;
1625;SDS011;806;48.770;9.156;2022-10-31T11:39:52;3.87;;;1.20;;
1625;SDS011;806;48.770;9.156;2022-10-31T11:42:21;3.30;;;1.73;;
1625;SDS011;806;48.770;9.156;2022-10-31T11:44:51;4.50;;;1.60;;
1625;SDS011;806;48.770;9.156;2022-10-31T11:47:21;2.53;;;1.30;;
1625;SDS011;806;48.770;9.156;2022-10-31T11:49:52;2.40;;;1.07;;
1625;SDS011;806;48.770;9.156;2022-10-31T11:52:24;3.40;;;1.00;;
1625;SDS011;806;48.770;9.156;2022-10-31T11:54:58;3.17;;;1.70;;
1625;SDS011;806;48.770;9.156;2022-10-31T11:57:31;3.17;;;1.20;;
1625;SDS011;806;48.770;9.156;2022-10-31T12:00:01;2.07;;;1.40;;
1625;SDS011;806;48.770;9.156;2022-10-31T12:02:30;6.83;;;1.80;;
1625;SDS011;806;48.770;9.156;2022-10-31T12:05:00;4.13;;;1.87;;
1625;SDS011;806;48.770;9.156;2022-10-31T12:07:33;2.20;;;1.50;;
1625;SDS011;806;48.770;9.156;2022-10-31T12:10:00;1.77;;;1.30;;
1625;SDS011;806;48.770;9.156;2022-10-31T12:12:33;4.40;;;1.27;;
1625;SDS011;806;48.770;9.156;2022-10-31T12:15:29;1.90;;;1.17;;
1625;SDS011;806;48.770;9.156;2022-10-31T12:20:54;2.57;;;1.53;;
1625;SDS011;806;48.770;9.156;2022-10-31T12:23:34;2.07;;;1.30;;
1625;SDS011;806;48.770;9.156;2022-10-31T12:26:10;1.47;;;1.00;;
1625;SDS011;806;48.770;9.156;2022-10-31T12:28:52;6.87;;;2.70;;
1625;SDS011;806;48.770;9.156;2022-10-31T12:31:32;3.50;;;1.50;;
1625;SDS011;806;48.770;9.156;2022-10-31T12:37:27;3.37;;;1.40;;
1625;SDS011;806;48.770;9.156;2022-10-31T12:40:17;2.47;;;1.23;;
1625;SDS011;806;48.770;9.156;2022-10-31T12:42:57;1.90;;;1.20;;
1625;SDS011;806;48.770;9.156;2022-10-31T12:45:42;4.90;;;1.93;;
1625;SDS011;806;48.770;9.156;2022-10-31T12:48:27;7.10;;;1.43;;
1625;SDS011;806;48.770;9.156;2022-10-31T12:51:08;3.03;;;1.60;;
1625;SDS011;806;48.770;9.156;2022-10-31T12:53:47;1.97;;;1.40;;
1625;SDS011;806;48.770;9.156;2022-10-31T12:56:29;2.80;;;1.57;;
1625;SDS011;806;48.770;9.156;2022-10-31T12:59:07;5.43;;;1.80;;
1625;SDS011;806;48.770;9.156;2022-10-31T13:01:40;2.23;;;1.60;;
1625;SDS011;806;48.770;9.156;2022-10-31T13:04:14;2.37;;;1.50;;
1625;SDS011;806;48.770;9.156;2022-10-31T13:06:47;2.70;;;1.57;;
1625;SDS011;806;48.770;9.156;2022-10-31T13:09:17;3.57;;;1.50;;
1625;SDS011;806;48.770;9.156;2022-10-31T13:11:48;5.90;;;1.30;;
1625;SDS011;806;48.770;9.156;2022-10-31T13:14:22;5.70;;;1.53;;
1625;SDS011;806;48.770;9.156;2022-10-31T13:16:52;2.90;;;1.83;;
1625;SDS011;806;48.770;9.156;2022-10-31T13:19:23;6.90;;;2.03;;
1625;SDS011;806;48.770;9.156;2022-10-31T13:21:57;3.73;;;1.87;;
1625;SDS011;806;48.770;9.156;2022-10-31T13:24:30;5.73;;;2.03;;
1625;SDS011;806;48.770;9.156;2022-10-31T13:27:02;5.97;;;2.20;;
1625;SDS011;806;48.770;9.156;2022-10-31T13:29:41;4.40;;;2.10;;
1625;SDS011;806;48.770;9.156;2022-10-31T13:32:16;2.43;;;1.50;;
1625;SDS011;806;48.770;9.156;2022-10-31T13:34:46;2.50;;;1.70;;
1625;SDS011;806;48.770;9.156;2022-10-31T13:37:22;3.60;;;1.70;;
1625;SDS011;806;48.770;9.156;2022-10-31T13:40:11;2.70;;;1.80;;
1625;SDS011;806;48.770;9.156;2022-10-31T13:42:50;5.47;;;1.63;;
1625;SDS011;806;48.770;9.156;2022-10-31T13:45:24;3.87;;;1.90;;
1625;SDS011;806;48.770;9.156;2022-10-31T13:47:55;2.17;;;1.50;;
1625;SDS011;806;48.770;9.156;2022-10-31T13:50:26;4.00;;;1.77;;
1625;SDS011;806;48.770;9.156;2022-10-31T13:53:03;4.43;;;2.40;;
1625;SDS011;806;48.770;9.156;2022-10-31T13:55:38;4.10;;;1.90;;
1625;SDS011;806;48.770;9.156;2022-10-31T13:58:19;3.83;;;1.90;;
1625;SDS011;806;48.770;9.156;2022-10-31T14:00:57;5.80;;;1.83;;
1625;SDS011;806;48.770;9.156;2022-10-31T14:03:27;7.40;;;1.70;;
1625;SDS011;806;48.770;9.156;2022-10-31T14:05:57;4.00;;;1.63;;
1625;SDS011;806;48.770;9.156;2022-10-31T14:08:24;4.80;;;1.50;;
1625;SDS011;806;48.770;9.156;2022-10-31T14:10:52;3.10;;;1.77;;
1625;SDS011;806;48.770;9.156;2022-10-31T14:13:22;3.60;;;1.43;;
1625;SDS011;806;48.770;9.156;2022-10-31T14:15:54;5.93;;;2.63;;
1625;SDS011;806;48.770;9.156;2022-10-31T14:18:24;2.97;;;1.30;;
1625;SDS011;806;48.770;9.156;2022-10-31T14:20:57;4.53;;;2.83;;
1625;SDS011;806;48.770;9.156;2022-10-31T14:26:29;6.83;;;2.10;;
1625;SDS011;806;48.770;9.156;2022-10-31T14:28:59;5.17;;;1.97;;
1625;SDS011;806;48.770;9.156;2022-10-31T14:31:31;2.13;;;1.30;;
1625;SDS011;806;48.770;9.156;2022-10-31T14:34:03;2.57;;;1.40;;
1625;SDS011;806;48.770;9.156;2022-10-31T14:36:48;3.83;;;1.70;;
1625;SDS011;806;48.770;9.156;2022-10-31T14:39:24;5.43;;;1.40;;
1625;SDS011;806;48.770;9.156;2022-10-31T14:42:05;3.27;;;1.50;;
1625;SDS011;806;48.770;9.156;2022-10-31T14:47:41;3.40;;;1.90;;
1625;SDS011;806;48.770;9.156;2022-10-31T14:50:20;4.70;;;1.37;;
1625;SDS011;806;48.770;9.156;2022-10-31T14:52:53;2.20;;;1.70;;
1625;SDS011;806;48.770;9.156;2022-10-31T14:55:23;5.00;;;1.80;;
1625;SDS011;806;48.770;9.156;2022-10-31T14:57:52;3.90;;;1.40;;
1625;SDS011;806;48.770;9.156;2022-10-31T15:00:21;6.53;;;1.63;;
1625;SDS011;806;48.770;9.156;2022-10-31T15:02:58;3.40;;;1.70;;
1625;SDS011;806;48.770;9.156;2022-10-31T15:05:34;5.23;;;2.00;;
1625;SDS011;806;48.770;9.156;2022-10-31T15:08:13;3.40;;;1.80;;
1625;SDS011;806;48.770;9.156;2022-10-31T15:10:52;4.00;;;2.20;;
1625;SDS011;806;48.770;9.156;2022-10-31T15:13:21;9.80;;;2.60;;
1625;SDS011;806;48.770;9.156;2022-10-31T15:15:48;2.90;;;1.53;;
1625;SDS011;806;48.770;9.156;2022-10-31T15:18:21;3.60;;;2.30;;
1625;SDS011;806;48.770;9.156;2022-10-31T15:20:51;2.43;;;1.40;;
1625;SDS011;806;48.770;9.156;2022-10-31T15:23:23;7.10;;;1.67;;
1625;SDS011;806;48.770;9.156;2022-10-31T15:25:57;2.57;;;2.10;;
1625;SDS011;806;48.770;9.156;2022-10-31T15:28:25;1.90;;;1.70;;
1625;SDS011;806;48.770;9.156;2022-10-31T15:30:53;5.93;;;1.73;;
1625;SDS011;806;48.770;9.156;2022-10-31T15:33:21;2.50;;;1.53;;
1625;SDS011;806;48.770;9.156;2022-10-31T15:35:57;2.80;;;1.50;;
1625;SDS011;806;48.770;9.156;2022-10-31T15:38:27;3.60;;;1.30;;
1625;SDS011;806;48.770;9.156;2022-10-31T15:40:56;5.60;;;2.47;;
1625;SDS011;806;48.770;9.156;2022-10-31T15:43:26;4.53;;;1.67;;
1625;SDS011;806;48.770;9.156;2022-10-31T15:45:57;3.73;;;1.57;;
1625;SDS011;806;48.770;9.156;2022-10-31T15:48:25;4.00;;;1.80;;
1625;SDS011;806;48.770;9.156;2022-10-31T15:50:53;9.80;;;2.17;;
1625;SDS011;806;48.770;9.156;2022-10-31T15:53:22;6.27;;;2.17;;
1625;SDS011;806;48.770;9.156;2022-10-31T15:55:53;5.60;;;1.80;;
1625;SDS011;806;48.770;9.156;2022-10-31T15:58:22;2.73;;;1.70;;
1625;SDS011;806;48.770;9.156;2022-10-31T16:00:57;3.70;;;1.87;;
1625;SDS011;806;48.770;9.156;2022-10-31T16:03:26;3.77;;;2.47;;
1625;SDS011;806;48.770;9.156;2022-10-31T16:05:54;2.60;;;1.63;;
1625;SDS011;806;48.770;9.156;2022-10-31T16:08:31;6.33;;;1.50;;
1625;SDS011;806;48.770;9.156;2022-10-31T16:11:01;3.07;;;1.50;;
1625;SDS011;806;48.770;9.156;2022-10-31T16:13:51;5.23;;;2.47;;
1625;SDS011;806;48.770;9.156;2022-10-31T16:16:20;2.77;;;1.77;;
1625;SDS011;806;48.770;9.156;2022-10-31T16:18:47;3.90;;;1.60;;